Time;durP1;ratioP1;P1;durP2;ratioP2;P2;SDS_P1;SDS_P2;PMS_P1;PMS_P2;Temp;Humidity;BMP_temperature;BMP_pressure;BME280_temperature;BME280_humidity;BME280_pressure;Samples;Min_cycle;Max_cycle;Signal;HPM_P1;HPM_P2
2022/11/08 00:02:38;;;;;;;13.57;8.77;;;9.90;99.90;;;;;;4944579;28;20496;-68
2022/11/08 00:16:03;;;;;;;9.97;8.90;;;9.90;99.90;;;;;;4977686;28;20466;-68
2022/11/08 00:18:29;;;;;;;9.10;8.20;;;9.90;99.90;;;;;;4977716;28;20462;-68
2022/11/08 00:21:00;;;;;;;9.80;8.67;;;9.90;99.90;;;;;;4977797;28;20454;-68
2022/11/08 00:23:27;;;;;;;9.73;8.80;;;9.90;99.90;;;;;;4978112;28;20565;-68
2022/11/08 00:25:54;;;;;;;10.13;9.10;;;9.90;99.90;;;;;;4977520;28;20459;-68
2022/11/08 00:28:21;;;;;;;9.33;8.23;;;9.90;99.90;;;;;;4977481;28;20542;-68
2022/11/08 00:30:48;;;;;;;9.43;8.53;;;9.80;99.90;;;;;;4977492;28;20525;-68
2022/11/08 00:33:15;;;;;;;11.93;9.00;;;9.80;99.90;;;;;;4977437;28;20529;-68
2022/11/08 00:35:42;;;;;;;10.70;9.33;;;9.70;99.90;;;;;;4977493;28;20518;-69
2022/11/08 00:38:10;;;;;;;12.10;9.90;;;9.70;99.90;;;;;;4977253;28;20461;-68
2022/11/08 00:40:37;;;;;;;12.10;10.57;;;9.70;99.90;;;;;;4977161;28;20454;-68
2022/11/08 00:43:04;;;;;;;14.10;10.00;;;9.60;99.90;;;;;;4977163;28;20479;-68
2022/11/08 00:45:30;;;;;;;10.90;9.93;;;9.60;99.90;;;;;;4977009;28;20455;-68
2022/11/08 00:47:57;;;;;;;11.43;10.13;;;9.60;99.90;;;;;;4976953;28;20533;-68
2022/11/08 00:50:23;;;;;;;11.97;10.77;;;9.60;99.90;;;;;;4977416;28;20503;-68
2022/11/08 00:52:50;;;;;;;12.43;11.03;;;9.50;99.90;;;;;;4977117;28;20478;-68
2022/11/08 00:55:19;;;;;;;11.77;10.57;;;9.50;99.90;;;;;;4977390;28;20459;-68
2022/11/08 00:57:46;;;;;;;12.37;11.27;;;9.50;99.90;;;;;;4976700;28;20952;-68
2022/11/08 01:00:13;;;;;;;14.83;13.60;;;9.50;99.90;;;;;;4977277;28;20459;-68
2022/11/08 01:02:40;;;;;;;15.30;12.10;;;9.50;99.90;;;;;;4976934;28;20486;-67
2022/11/08 01:05:07;;;;;;;12.40;11.10;;;9.50;99.90;;;;;;4976941;28;21013;-68
2022/11/08 01:07:34;;;;;;;12.40;11.20;;;9.40;99.90;;;;;;4977206;28;20486;-68
2022/11/08 01:10:01;;;;;;;13.00;11.70;;;9.30;99.90;;;;;;4976775;28;20986;-68
2022/11/08 01:12:29;;;;;;;12.60;11.33;;;9.30;99.90;;;;;;4976597;28;21017;-68
2022/11/08 01:14:55;;;;;;;12.00;10.90;;;9.20;99.90;;;;;;4977345;28;20774;-68
2022/11/08 01:17:22;;;;;;;13.50;11.70;;;9.20;99.90;;;;;;4976303;28;21005;-68
2022/11/08 01:19:49;;;;;;;12.73;11.53;;;9.20;99.90;;;;;;4976618;28;20482;-68
2022/11/08 01:22:15;;;;;;;12.00;11.00;;;9.20;99.90;;;;;;4976313;28;20490;-68
2022/11/08 01:24:42;;;;;;;14.10;12.80;;;9.20;99.90;;;;;;4976620;28;20506;-68
2022/11/08 01:27:08;;;;;;;13.50;12.37;;;9.10;99.90;;;;;;4975573;28;20451;-68
2022/11/08 01:29:36;;;;;;;12.70;11.40;;;9.10;99.90;;;;;;4976057;28;20938;-68
2022/11/08 01:32:03;;;;;;;13.07;11.90;;;9.00;99.90;;;;;;4976359;28;20479;-67
2022/11/08 01:34:30;;;;;;;11.83;10.73;;;9.00;99.90;;;;;;4976803;28;20465;-68
2022/11/08 01:36:56;;;;;;;13.50;10.97;;;9.00;99.90;;;;;;4976422;28;20548;-67
2022/11/08 01:39:23;;;;;;;13.20;11.40;;;9.00;99.90;;;;;;4976689;28;20490;-67
2022/11/08 01:41:50;;;;;;;12.53;10.77;;;9.00;99.90;;;;;;4977070;28;20451;-67
2022/11/08 01:44:17;;;;;;;13.63;11.53;;;9.00;99.90;;;;;;4976197;28;20483;-67
2022/11/08 01:46:46;;;;;;;13.80;10.90;;;9.00;99.90;;;;;;4976068;28;20790;-68
2022/11/08 01:49:37;;;;;;;13.73;11.60;;;9.00;99.90;;;;;;4975819;28;20942;-67
2022/11/08 01:52:13;;;;;;;11.90;10.67;;;9.00;99.90;;;;;;4975970;28;20478;-67
2022/11/08 01:54:46;;;;;;;13.10;11.90;;;9.00;99.90;;;;;;4975991;28;20447;-67
2022/11/08 01:57:16;;;;;;;12.77;11.67;;;9.00;99.90;;;;;;4976057;28;20509;-68
2022/11/08 01:59:45;;;;;;;13.53;11.30;;;9.00;99.90;;;;;;4975998;28;20477;-68
2022/11/08 02:02:14;;;;;;;12.90;11.70;;;9.00;99.90;;;;;;4975376;28;20462;-68
2022/11/08 02:04:42;;;;;;;13.13;11.80;;;8.90;99.90;;;;;;4975751;28;20459;-67
2022/11/08 02:07:12;;;;;;;13.73;12.43;;;8.90;99.90;;;;;;4975813;28;20545;-68
2022/11/08 02:09:41;;;;;;;12.00;10.90;;;9.00;99.90;;;;;;4975660;28;20454;-67
2022/11/08 02:12:09;;;;;;;13.17;11.97;;;9.00;99.90;;;;;;4975482;28;20529;-67
2022/11/08 02:14:37;;;;;;;12.20;11.10;;;9.00;99.90;;;;;;4975337;28;20996;-68
2022/11/08 02:17:04;;;;;;;13.23;11.83;;;9.00;99.90;;;;;;4975426;28;20978;-68
2022/11/08 02:19:41;;;;;;;12.97;11.53;;;9.00;99.90;;;;;;4975491;28;20612;-68
2022/11/08 02:22:22;;;;;;;14.37;12.50;;;8.90;99.90;;;;;;4975565;28;20501;-68
2022/11/08 02:24:51;;;;;;;15.53;13.00;;;8.80;99.90;;;;;;4975487;28;20447;-68
2022/11/08 02:27:18;;;;;;;12.43;11.33;;;8.80;99.90;;;;;;4975926;28;20459;-67
2022/11/08 02:29:44;;;;;;;13.67;12.47;;;8.70;99.90;;;;;;4975382;28;20454;-69
2022/11/08 02:32:12;;;;;;;15.50;13.97;;;8.70;99.90;;;;;;4975035;28;20474;-67
2022/11/08 02:34:43;;;;;;;13.20;12.10;;;8.60;99.90;;;;;;4975551;28;20458;-68
2022/11/08 02:37:13;;;;;;;14.90;13.50;;;8.60;99.90;;;;;;4975087;28;20443;-67
2022/11/08 02:39:40;;;;;;;14.83;13.43;;;8.60;99.90;;;;;;4975390;28;20439;-67
2022/11/08 02:42:12;;;;;;;14.23;12.63;;;8.50;99.90;;;;;;4975272;28;20439;-67
2022/11/08 02:44:38;;;;;;;13.47;12.17;;;8.40;99.90;;;;;;4975363;28;20808;-68
2022/11/08 02:47:05;;;;;;;14.00;12.00;;;8.30;99.90;;;;;;4974996;28;20927;-67
2022/11/08 02:49:32;;;;;;;12.67;11.30;;;8.30;99.90;;;;;;4975015;28;20947;-67
2022/11/08 02:51:58;;;;;;;11.07;10.07;;;8.30;99.90;;;;;;4974518;28;20854;-67
2022/11/08 02:54:25;;;;;;;12.20;11.00;;;8.30;99.90;;;;;;4974845;28;21001;-67
2022/11/08 02:56:51;;;;;;;12.30;11.20;;;8.20;99.90;;;;;;4974978;28;20463;-67
2022/11/08 02:59:19;;;;;;;11.33;10.33;;;8.20;99.90;;;;;;4975081;28;20490;-67
2022/11/08 03:01:46;;;;;;;11.33;10.00;;;8.20;99.90;;;;;;4974695;28;20458;-67
2022/11/08 03:04:13;;;;;;;10.10;9.30;;;8.20;99.90;;;;;;4974861;28;20485;-68
2022/11/08 03:06:40;;;;;;;10.83;9.80;;;8.20;99.90;;;;;;4974689;28;20919;-67
2022/11/08 03:09:06;;;;;;;11.50;10.30;;;8.20;99.90;;;;;;4974819;28;20467;-67
2022/11/08 03:11:33;;;;;;;11.30;8.90;;;8.30;99.90;;;;;;4974847;28;20478;-66
2022/11/08 03:14:00;;;;;;;10.03;9.13;;;8.30;99.90;;;;;;4974625;28;20474;-67
2022/11/08 03:16:29;;;;;;;10.50;9.50;;;8.30;99.90;;;;;;4974723;28;20498;-67
2022/11/08 03:18:55;;;;;;;9.97;9.07;;;8.40;99.90;;;;;;4974843;28;20454;-68
2022/11/08 03:21:22;;;;;;;9.73;8.87;;;8.40;99.90;;;;;;4974845;28;20497;-68
2022/11/08 03:23:49;;;;;;;10.07;9.13;;;8.30;99.90;;;;;;4974691;28;20470;-67
2022/11/08 03:26:16;;;;;;;10.57;9.57;;;8.30;99.90;;;;;;4974649;28;20949;-67
2022/11/08 03:28:42;;;;;;;11.40;10.20;;;8.30;99.90;;;;;;4976968;28;20458;-68
2022/11/08 03:31:09;;;;;;;9.97;8.97;;;8.20;99.90;;;;;;4980904;28;20478;-68
2022/11/08 03:33:37;;;;;;;9.90;9.00;;;8.20;99.90;;;;;;4981937;28;20882;-67
2022/11/08 03:36:05;;;;;;;9.77;8.07;;;8.20;99.90;;;;;;4976250;28;20462;-67
2022/11/08 03:38:31;;;;;;;8.97;8.10;;;8.20;99.90;;;;;;4974537;28;21005;-67
2022/11/08 03:40:58;;;;;;;8.20;7.50;;;8.20;99.90;;;;;;4974702;28;20501;-66
2022/11/08 03:43:26;;;;;;;8.30;7.70;;;8.20;99.90;;;;;;4974753;28;20878;-68
2022/11/08 03:45:52;;;;;;;9.30;8.50;;;8.20;99.90;;;;;;4974841;28;20513;-67
2022/11/08 03:48:19;;;;;;;9.40;8.60;;;8.20;99.90;;;;;;4974681;28;20566;-67
2022/11/08 03:50:47;;;;;;;9.77;8.87;;;8.20;99.90;;;;;;4977632;28;20474;-68
2022/11/08 03:53:14;;;;;;;11.90;9.23;;;8.20;99.90;;;;;;4978234;28;20526;-67
2022/11/08 03:55:41;;;;;;;10.90;9.07;;;8.20;99.90;;;;;;4978185;28;20490;-67
2022/11/08 03:58:07;;;;;;;9.13;8.33;;;8.10;99.90;;;;;;4978311;28;20545;-68
2022/11/08 04:00:34;;;;;;;10.33;9.20;;;8.20;99.90;;;;;;4978132;28;20454;-68
2022/11/08 04:03:02;;;;;;;9.70;8.80;;;8.20;99.90;;;;;;4978290;28;20474;-67
2022/11/08 04:05:31;;;;;;;10.03;9.10;;;8.20;99.90;;;;;;4977689;28;20938;-67
2022/11/08 04:07:59;;;;;;;10.50;9.50;;;8.20;99.90;;;;;;4977796;28;20961;-67
2022/11/08 04:10:25;;;;;;;9.57;8.67;;;8.10;99.90;;;;;;4977846;28;20485;-67
2022/11/08 04:15:36;;;;;;;10.20;9.20;;;8.10;99.90;;;;;;4978199;28;20418;-68
2022/11/08 04:23:35;;;;;;;11.33;10.07;;;8.10;99.90;;;;;;4977694;28;20566;-68
2022/11/08 04:26:04;;;;;;;10.40;9.50;;;8.10;99.90;;;;;;4977834;28;20465;-68
2022/11/08 04:28:33;;;;;;;10.47;9.43;;;8.10;99.90;;;;;;4977630;28;20467;-68
2022/11/08 04:31:02;;;;;;;10.30;9.50;;;8.10;99.90;;;;;;4978126;28;20478;-68
2022/11/08 04:33:29;;;;;;;10.37;9.37;;;8.10;99.90;;;;;;4977081;28;20982;-68
2022/11/08 04:35:55;;;;;;;9.80;9.00;;;8.10;99.90;;;;;;4977137;28;20968;-68
2022/11/08 04:38:22;;;;;;;10.10;9.17;;;8.10;99.90;;;;;;4977381;28;20459;-68
2022/11/08 04:40:50;;;;;;;11.03;9.93;;;8.00;99.90;;;;;;4977419;28;20454;-68
2022/11/08 04:43:17;;;;;;;10.00;9.10;;;8.00;99.90;;;;;;4977338;28;20478;-68
2022/11/08 04:45:43;;;;;;;12.17;9.63;;;8.00;99.90;;;;;;4977710;28;20493;-67
2022/11/08 04:48:10;;;;;;;10.90;9.90;;;7.90;99.90;;;;;;4977943;28;20465;-67
2022/11/08 04:50:37;;;;;;;11.83;10.63;;;7.90;99.90;;;;;;4977270;28;20458;-67
2022/11/08 04:53:03;;;;;;;10.17;9.30;;;7.80;99.90;;;;;;4977095;28;20486;-67
2022/11/08 04:55:30;;;;;;;11.53;10.43;;;7.80;99.90;;;;;;4977300;28;20510;-67
2022/11/08 04:57:59;;;;;;;17.23;9.60;;;7.80;99.90;;;;;;4977195;28;20870;-67
2022/11/08 05:00:27;;;;;;;11.30;10.20;;;7.80;99.90;;;;;;4977051;28;20830;-69
2022/11/08 05:02:54;;;;;;;11.97;10.70;;;7.70;99.90;;;;;;4977496;28;20477;-67
2022/11/08 05:05:20;;;;;;;12.03;9.50;;;7.70;99.90;;;;;;4977923;28;20465;-67
2022/11/08 05:07:47;;;;;;;10.70;9.70;;;7.60;99.90;;;;;;4977538;28;20455;-66
2022/11/08 05:10:14;;;;;;;10.10;9.20;;;7.60;99.90;;;;;;4977642;28;20513;-66
2022/11/08 05:12:40;;;;;;;11.23;9.20;;;7.60;99.90;;;;;;4976893;28;20490;-66
2022/11/08 05:15:10;;;;;;;9.37;8.67;;;7.70;99.90;;;;;;4976618;28;20943;-66
2022/11/08 05:17:36;;;;;;;10.90;9.33;;;7.70;99.90;;;;;;4977117;28;20458;-66
2022/11/08 05:25:39;;;;;;;10.43;9.50;;;7.70;99.90;;;;;;4961730;28;20510;-66
2022/11/08 05:28:06;;;;;;;8.77;7.97;;;7.70;99.90;;;;;;4977198;28;20542;-68
2022/11/08 05:30:34;;;;;;;8.30;7.70;;;7.70;99.90;;;;;;4976829;28;20501;-66
2022/11/08 05:33:00;;;;;;;8.80;8.10;;;7.70;99.90;;;;;;4976570;28;20821;-67
2022/11/08 05:35:27;;;;;;;8.53;7.73;;;7.70;99.90;;;;;;4976619;28;20458;-67
2022/11/08 05:37:54;;;;;;;8.10;7.30;;;7.70;99.90;;;;;;4976858;28;20513;-68
2022/11/08 05:40:20;;;;;;;7.93;7.23;;;7.80;99.90;;;;;;4976641;28;20942;-68
2022/11/08 05:42:47;;;;;;;7.77;7.00;;;7.80;99.90;;;;;;4976402;28;20474;-68
2022/11/08 05:45:14;;;;;;;8.83;8.00;;;7.80;99.90;;;;;;4976482;28;20513;-68
2022/11/08 05:47:45;;;;;;;9.10;7.50;;;7.80;99.90;;;;;;4976027;28;20459;-68
2022/11/08 05:50:12;;;;;;;8.43;7.73;;;7.80;99.90;;;;;;4976452;28;20616;-68
2022/11/08 05:52:39;;;;;;;8.10;7.30;;;7.80;99.90;;;;;;4976128;28;20482;-68
2022/11/08 05:55:07;;;;;;;7.57;6.87;;;7.80;99.90;;;;;;4976094;28;20461;-68
2022/11/08 05:57:33;;;;;;;9.93;8.83;;;7.80;99.90;;;;;;4978960;28;20463;-68
2022/11/08 06:00:00;;;;;;;10.00;8.07;;;7.80;99.90;;;;;;4976767;28;20518;-68
2022/11/08 06:02:28;;;;;;;12.23;8.23;;;7.70;99.90;;;;;;4976687;28;20482;-68
2022/11/08 06:04:56;;;;;;;10.47;7.77;;;7.80;99.90;;;;;;4976331;28;20450;-68
2022/11/08 06:07:22;;;;;;;8.90;8.07;;;7.70;99.90;;;;;;4977185;28;20455;-68
2022/11/08 06:09:49;;;;;;;9.57;8.30;;;7.70;99.90;;;;;;4976354;28;20455;-67
2022/11/08 06:12:16;;;;;;;8.57;7.77;;;7.60;99.90;;;;;;4975594;28;20478;-67
2022/11/08 06:14:42;;;;;;;9.03;8.23;;;7.60;99.90;;;;;;4976478;28;20454;-67
2022/11/08 06:17:09;;;;;;;8.63;7.93;;;7.60;99.90;;;;;;4976317;28;20513;-67
2022/11/08 06:19:36;;;;;;;8.20;7.50;;;7.60;99.90;;;;;;4976148;28;20509;-68
2022/11/08 06:22:04;;;;;;;9.53;8.63;;;7.60;99.90;;;;;;4982408;28;20476;-67
2022/11/08 06:24:30;;;;;;;8.43;7.63;;;7.60;99.90;;;;;;4981262;28;20458;-67
2022/11/08 06:26:57;;;;;;;9.13;8.30;;;7.70;99.90;;;;;;4975889;28;20517;-67
2022/11/08 06:29:24;;;;;;;8.67;7.70;;;7.70;99.90;;;;;;4975576;28;20486;-67
2022/11/08 06:31:51;;;;;;;7.93;7.17;;;7.70;99.90;;;;;;4975548;28;20525;-67
2022/11/08 06:34:17;;;;;;;9.03;7.87;;;7.70;99.90;;;;;;4975635;28;20537;-68
2022/11/08 06:36:44;;;;;;;9.10;8.30;;;7.70;99.90;;;;;;4975980;28;20454;-67
2022/11/08 06:39:12;;;;;;;8.93;8.13;;;7.80;99.90;;;;;;4975761;28;20510;-68
2022/11/08 06:41:39;;;;;;;9.83;8.83;;;7.80;99.90;;;;;;4976397;28;20447;-67
2022/11/08 06:44:05;;;;;;;7.87;7.13;;;7.80;99.90;;;;;;4975655;28;20489;-68
2022/11/08 06:46:32;;;;;;;8.50;7.63;;;7.80;99.90;;;;;;4976052;28;20455;-68
2022/11/08 06:48:59;;;;;;;8.07;7.33;;;7.90;99.90;;;;;;4975425;28;20454;-67
2022/11/08 06:51:25;;;;;;;7.57;6.80;;;7.90;99.90;;;;;;4975532;28;20454;-67
2022/11/08 06:53:52;;;;;;;7.80;7.10;;;8.00;99.90;;;;;;4976096;28;20482;-66
2022/11/08 06:56:20;;;;;;;8.87;6.73;;;8.10;99.90;;;;;;4975665;28;20816;-67
2022/11/08 06:58:47;;;;;;;8.03;7.33;;;8.10;99.90;;;;;;4975590;28;20509;-67
2022/11/08 07:01:13;;;;;;;10.00;7.80;;;8.20;99.90;;;;;;4974620;28;20467;-67
2022/11/08 07:03:40;;;;;;;8.30;7.50;;;8.20;99.90;;;;;;4974898;28;20536;-67
2022/11/08 07:06:07;;;;;;;9.93;8.37;;;8.30;99.90;;;;;;4975107;28;20457;-67
2022/11/08 07:08:35;;;;;;;9.20;7.40;;;8.40;99.90;;;;;;4975075;28;20513;-66
2022/11/08 07:11:02;;;;;;;7.40;6.80;;;8.50;99.90;;;;;;4975358;28;20538;-67
2022/11/08 07:13:30;;;;;;;8.43;7.00;;;8.60;99.90;;;;;;4975153;28;20557;-67
2022/11/08 07:15:58;;;;;;;8.30;7.50;;;8.70;99.90;;;;;;4975064;28;20459;-66
2022/11/08 07:18:26;;;;;;;9.77;7.10;;;8.70;99.90;;;;;;4975042;28;20486;-67
2022/11/08 07:20:53;;;;;;;7.80;7.20;;;8.80;99.90;;;;;;4974879;28;20463;-67
2022/11/08 07:23:19;;;;;;;7.83;7.13;;;8.80;99.90;;;;;;4974838;28;20878;-67
2022/11/08 07:25:46;;;;;;;8.27;6.33;;;8.90;99.90;;;;;;4977885;28;20466;-67
2022/11/08 07:28:15;;;;;;;8.50;6.50;;;9.00;99.90;;;;;;4978555;28;20466;-68
2022/11/08 07:30:43;;;;;;;7.70;7.00;;;9.20;99.90;;;;;;4978522;28;20482;-67
2022/11/08 07:33:10;;;;;;;7.80;7.00;;;9.30;99.90;;;;;;4978203;28;20891;-67
2022/11/08 07:35:37;;;;;;;8.23;6.70;;;9.70;99.90;;;;;;4978711;28;20509;-67
2022/11/08 07:38:03;;;;;;;8.20;6.33;;;10.10;99.90;;;;;;4978556;28;20533;-68
2022/11/08 07:40:30;;;;;;;8.83;7.93;;;10.40;99.90;;;;;;4978099;28;21005;-69
2022/11/08 07:42:58;;;;;;;8.80;7.20;;;10.60;99.90;;;;;;4978358;28;20529;-68
2022/11/08 07:45:25;;;;;;;11.03;7.47;;;10.80;99.90;;;;;;4978280;28;20478;-67
2022/11/08 07:47:58;;;;;;;7.53;5.93;;;10.90;99.90;;;;;;4978409;28;20489;-68
2022/11/08 07:50:25;;;;;;;6.77;6.13;;;11.30;99.90;;;;;;4978277;28;20443;-68
2022/11/08 07:52:52;;;;;;;8.70;7.00;;;11.60;99.90;;;;;;4978436;28;20500;-68
2022/11/08 07:55:18;;;;;;;9.93;6.47;;;11.40;99.90;;;;;;4979099;28;20454;-68
2022/11/08 07:57:45;;;;;;;7.80;6.57;;;11.70;99.90;;;;;;4978955;28;20450;-68
2022/11/08 08:00:13;;;;;;;7.07;6.30;;;12.50;99.90;;;;;;4978664;28;20504;-68
2022/11/08 08:02:40;;;;;;;7.47;6.10;;;12.70;99.90;;;;;;4977583;28;20850;-68
2022/11/08 08:05:08;;;;;;;6.90;6.30;;;12.60;99.90;;;;;;4977971;28;20494;-69
2022/11/08 08:07:36;;;;;;;6.57;5.97;;;12.90;99.90;;;;;;4977944;28;20513;-69
2022/11/08 08:10:04;;;;;;;5.00;4.60;;;13.60;99.90;;;;;;4977916;28;20458;-69
2022/11/08 08:12:31;;;;;;;5.90;4.87;;;14.60;99.90;;;;;;4977718;28;20490;-68
2022/11/08 08:14:57;;;;;;;6.03;4.13;;;15.80;99.90;;;;;;4977914;28;20458;-68
2022/11/08 08:17:24;;;;;;;6.13;4.13;;;16.90;99.90;;;;;;4977725;28;20458;-69
2022/11/08 08:19:51;;;;;;;5.67;4.60;;;18.50;99.90;;;;;;4977637;28;20458;-68
2022/11/08 08:22:19;;;;;;;4.87;4.40;;;19.60;99.90;;;;;;4977561;28;21219;-68
2022/11/08 08:24:45;;;;;;;4.53;3.90;;;20.80;97.10;;;;;;4977624;28;20454;-68
2022/11/08 08:27:12;;;;;;;6.00;3.60;;;21.30;92.80;;;;;;4977235;28;20857;-68
2022/11/08 08:29:39;;;;;;;4.30;3.90;;;21.80;91.50;;;;;;4978169;28;20458;-68
2022/11/08 08:32:05;;;;;;;3.70;3.40;;;22.30;89.50;;;;;;4977406;28;20817;-67
2022/11/08 08:34:32;;;;;;;6.10;4.07;;;22.80;88.70;;;;;;4976738;28;20822;-69
2022/11/08 08:36:59;;;;;;;3.73;3.33;;;23.30;85.50;;;;;;4976964;28;20821;-68
2022/11/08 08:39:27;;;;;;;3.80;3.50;;;23.80;80.10;;;;;;4977365;28;20554;-69
2022/11/08 08:41:53;;;;;;;3.90;3.60;;;24.20;78.70;;;;;;4977220;28;20510;-69
2022/11/08 08:44:20;;;;;;;4.10;3.80;;;24.60;76.80;;;;;;4976900;28;20982;-68
2022/11/08 08:46:47;;;;;;;3.73;3.40;;;23.70;76.80;;;;;;4977538;28;20459;-69
2022/11/08 08:49:13;;;;;;;5.80;3.83;;;24.00;75.10;;;;;;4977681;28;20458;-69
2022/11/08 08:51:40;;;;;;;5.97;4.30;;;24.20;76.50;;;;;;4977910;28;20482;-69
2022/11/08 08:54:07;;;;;;;5.00;4.20;;;23.90;74.80;;;;;;4978086;28;20549;-68
2022/11/08 08:56:34;;;;;;;5.73;5.23;;;23.10;73.80;;;;;;4978204;28;20813;-68
2022/11/08 08:59:01;;;;;;;5.53;5.03;;;21.70;75.80;;;;;;4978736;28;20454;-68
2022/11/08 09:01:28;;;;;;;5.43;4.97;;;20.70;80.00;;;;;;4977587;28;20463;-69
2022/11/08 09:03:54;;;;;;;4.80;4.40;;;19.20;84.30;;;;;;4977776;28;20506;-68
2022/11/08 09:06:21;;;;;;;6.57;5.10;;;18.60;89.00;;;;;;4977471;28;20989;-67
2022/11/08 09:08:48;;;;;;;6.70;5.40;;;18.20;90.20;;;;;;4977701;28;20455;-68
2022/11/08 09:11:14;;;;;;;8.20;4.23;;;17.80;91.50;;;;;;4978789;28;20903;-68
2022/11/08 09:13:42;;;;;;;6.47;5.17;;;17.40;92.70;;;;;;4979701;28;20486;-68
2022/11/08 09:16:09;;;;;;;6.00;5.50;;;16.60;94.00;;;;;;4977296;28;20462;-68
2022/11/08 09:18:36;;;;;;;5.03;4.60;;;16.30;96.20;;;;;;4976821;28;20458;-67
2022/11/08 09:21:03;;;;;;;5.00;4.60;;;16.50;96.50;;;;;;4976408;28;21004;-68
2022/11/08 09:23:30;;;;;;;8.60;5.17;;;17.00;96.50;;;;;;4976518;28;20562;-69
2022/11/08 09:25:58;;;;;;;6.93;4.83;;;17.70;95.50;;;;;;4976455;28;20459;-68
2022/11/08 09:28:24;;;;;;;4.80;4.40;;;18.20;93.30;;;;;;4976369;28;20461;-69
2022/11/08 09:30:52;;;;;;;8.33;5.10;;;18.30;93.80;;;;;;4976425;28;20459;-68
2022/11/08 09:33:19;;;;;;;7.50;5.17;;;19.00;93.50;;;;;;4976423;28;20557;-69
2022/11/08 09:35:46;;;;;;;5.37;4.80;;;19.70;91.70;;;;;;4976332;28;20451;-69
2022/11/08 09:38:12;;;;;;;8.83;4.70;;;20.10;90.50;;;;;;4976378;28;20855;-69
2022/11/08 09:40:44;;;;;;;4.87;4.00;;;20.60;89.90;;;;;;4976291;28;20870;-69
2022/11/08 09:43:39;;;;;;;4.67;4.17;;;21.30;87.90;;;;;;4976236;28;20475;-68
2022/11/08 09:46:10;;;;;;;5.17;4.13;;;22.10;84.60;;;;;;4976077;28;20443;-68
2022/11/08 09:48:40;;;;;;;4.53;4.10;;;22.20;83.00;;;;;;4975458;28;20442;-68
2022/11/08 09:51:11;;;;;;;4.43;4.03;;;21.30;82.10;;;;;;4975937;28;20458;-68
2022/11/08 09:53:46;;;;;;;8.97;4.67;;;20.10;84.60;;;;;;4975841;28;20479;-68
2022/11/08 09:56:16;;;;;;;8.47;3.97;;;18.90;87.80;;;;;;4976002;28;20493;-68
2022/11/08 09:58:49;;;;;;;4.27;3.97;;;17.70;91.10;;;;;;4975935;28;20513;-70
2022/11/08 10:01:17;;;;;;;4.77;4.30;;;16.90;93.10;;;;;;4975737;28;20459;-69
2022/11/08 10:03:47;;;;;;;4.90;4.40;;;16.30;95.20;;;;;;4975660;28;20527;-70
2022/11/08 10:06:47;;;;;;;4.80;4.30;;;15.90;97.10;;;;;;4975809;28;20529;-70
2022/11/08 10:09:30;;;;;;;8.70;4.47;;;15.50;98.90;;;;;;4943546;28;20490;-69
2022/11/08 10:12:08;;;;;;;4.67;4.30;;;15.30;99.90;;;;;;4976883;28;20490;-69
2022/11/08 10:14:52;;;;;;;4.93;4.13;;;15.00;99.90;;;;;;4975551;28;20470;-70
2022/11/08 10:17:59;;;;;;;4.70;4.30;;;14.70;99.90;;;;;;4975662;28;20474;-69
2022/11/08 10:20:35;;;;;;;7.00;5.30;;;14.60;99.90;;;;;;4966667;28;20458;-69
2022/11/08 10:23:12;;;;;;;4.70;4.30;;;14.40;99.90;;;;;;4975411;28;20470;-69
2022/11/08 10:25:44;;;;;;;8.00;5.03;;;14.40;99.90;;;;;;4975088;28;20919;-69
2022/11/08 10:28:15;;;;;;;8.93;5.20;;;14.40;99.90;;;;;;4975216;28;20435;-69
2022/11/08 10:30:47;;;;;;;5.60;3.97;;;14.50;99.90;;;;;;4975370;28;20438;-69
2022/11/08 10:33:20;;;;;;;5.40;4.37;;;14.60;99.90;;;;;;4975009;28;20482;-69
2022/11/08 10:35:52;;;;;;;6.00;4.00;;;14.60;99.90;;;;;;4975294;28;20442;-69
2022/11/08 10:38:21;;;;;;;4.20;3.90;;;14.70;99.90;;;;;;4975456;28;20478;-68
2022/11/08 10:40:56;;;;;;;10.90;4.17;;;14.80;99.90;;;;;;4976008;28;20461;-68
2022/11/08 10:43:29;;;;;;;5.80;4.73;;;15.00;99.90;;;;;;4977079;28;20482;-68
2022/11/08 10:45:55;;;;;;;6.00;5.10;;;15.20;99.90;;;;;;4975599;28;20898;-69
2022/11/08 10:48:23;;;;;;;6.53;4.77;;;15.40;99.90;;;;;;4975196;28;20458;-69
2022/11/08 10:50:52;;;;;;;4.60;4.20;;;15.60;99.90;;;;;;4975242;28;20501;-68
2022/11/08 10:53:22;;;;;;;5.93;4.07;;;15.70;99.90;;;;;;4974898;28;20486;-68
2022/11/08 10:55:50;;;;;;;5.87;4.53;;;15.90;99.90;;;;;;4975096;28;20564;-68
2022/11/08 10:58:32;;;;;;;9.60;4.73;;;16.20;99.90;;;;;;4975611;28;20455;-69
2022/11/08 11:01:01;;;;;;;5.03;4.57;;;16.40;99.90;;;;;;4974517;28;20474;-69
2022/11/08 11:03:30;;;;;;;9.53;4.37;;;16.50;99.90;;;;;;4974541;28;21045;-68
2022/11/08 11:06:01;;;;;;;10.63;5.30;;;16.60;99.90;;;;;;4974997;28;20462;-68
2022/11/08 11:08:28;;;;;;;5.83;4.70;;;16.70;99.90;;;;;;4974970;28;20818;-69
2022/11/08 11:10:55;;;;;;;6.47;4.47;;;16.70;99.90;;;;;;4974881;28;20833;-69
2022/11/08 11:13:23;;;;;;;6.43;4.77;;;16.60;99.90;;;;;;4974798;28;20518;-69
2022/11/08 11:15:53;;;;;;;10.43;4.07;;;16.60;99.90;;;;;;4974489;28;20465;-69
2022/11/08 11:18:28;;;;;;;7.13;4.43;;;16.70;99.90;;;;;;4974799;28;20461;-69
2022/11/08 11:21:15;;;;;;;7.60;4.40;;;17.00;99.90;;;;;;4975008;28;20442;-69
2022/11/08 11:23:44;;;;;;;6.33;4.03;;;17.10;99.90;;;;;;4974815;28;20474;-69
2022/11/08 11:26:21;;;;;;;4.57;4.10;;;17.20;99.90;;;;;;4974915;28;20455;-69
2022/11/08 11:29:15;;;;;;;8.20;3.83;;;17.20;99.90;;;;;;4975748;28;20474;-68
2022/11/08 11:31:44;;;;;;;5.40;3.70;;;17.10;99.90;;;;;;4975789;28;20526;-71
2022/11/08 11:34:39;;;;;;;4.87;3.90;;;17.10;99.90;;;;;;4975446;28;20487;-68
2022/11/08 11:37:18;;;;;;;4.10;3.70;;;17.20;99.90;;;;;;4974203;28;20882;-68
2022/11/08 11:40:02;;;;;;;3.07;2.77;;;17.20;99.90;;;;;;4974588;28;20900;-68
2022/11/08 11:42:34;;;;;;;5.73;3.10;;;17.20;99.90;;;;;;4974499;28;20594;-68
2022/11/08 11:45:09;;;;;;;3.50;3.20;;;17.20;99.90;;;;;;4975650;28;20439;-69
2022/11/08 11:47:46;;;;;;;6.20;3.33;;;17.10;99.90;;;;;;4974552;28;20434;-68
2022/11/08 11:50:27;;;;;;;3.90;3.20;;;17.20;99.90;;;;;;4974665;28;20447;-68
2022/11/08 11:52:56;;;;;;;4.03;2.80;;;17.30;99.90;;;;;;4974724;28;20720;-69
2022/11/08 11:55:29;;;;;;;9.60;2.90;;;17.20;99.90;;;;;;4975608;28;20514;-68
2022/11/08 11:58:07;;;;;;;8.43;3.60;;;17.30;99.90;;;;;;4975148;28;20529;-69
2022/11/08 12:00:37;;;;;;;4.73;3.40;;;17.40;99.90;;;;;;4975486;28;20443;-70
2022/11/08 12:03:26;;;;;;;2.63;2.40;;;17.60;99.90;;;;;;4978928;28;20482;-69
2022/11/08 12:06:11;;;;;;;3.40;2.60;;;17.80;99.90;;;;;;4976613;28;20919;-68
2022/11/08 12:08:49;;;;;;;4.80;3.10;;;18.00;99.90;;;;;;4974211;28;20439;-69
2022/11/08 12:11:31;;;;;;;8.20;2.80;;;18.20;99.90;;;;;;4976379;28;20907;-69
2022/11/08 12:14:11;;;;;;;8.40;3.10;;;18.20;98.40;;;;;;4977970;28;20482;-68
2022/11/08 12:16:47;;;;;;;4.70;3.13;;;18.10;98.90;;;;;;4977983;28;20443;-68
2022/11/08 12:19:27;;;;;;;3.50;3.20;;;18.20;99.80;;;;;;4978177;28;20445;-69
2022/11/08 12:22:06;;;;;;;7.13;2.90;;;18.20;99.90;;;;;;4978021;28;20858;-69
2022/11/08 12:24:46;;;;;;;6.30;3.27;;;18.20;99.50;;;;;;4979321;28;20446;-67
2022/11/08 12:27:20;;;;;;;5.27;3.80;;;18.20;99.90;;;;;;4977857;28;20501;-67
2022/11/08 12:29:59;;;;;;;3.23;2.93;;;18.20;99.60;;;;;;4977803;28;20446;-68
2022/11/08 12:32:46;;;;;;;7.27;3.77;;;18.10;99.60;;;;;;4977775;28;20474;-68
2022/11/08 12:35:22;;;;;;;4.47;4.07;;;18.10;99.90;;;;;;4977418;28;20462;-68
2022/11/08 12:38:09;;;;;;;9.30;4.00;;;18.30;99.90;;;;;;4979304;28;20438;-69
2022/11/08 12:40:45;;;;;;;5.17;4.03;;;18.50;99.90;;;;;;4978279;28;20936;-68
2022/11/08 12:43:22;;;;;;;4.17;3.10;;;18.70;99.90;;;;;;4977758;28;20481;-68
2022/11/08 12:46:03;;;;;;;8.10;3.30;;;19.00;99.90;;;;;;4977468;28;20803;-68
2022/11/08 12:48:57;;;;;;;3.60;2.63;;;19.30;99.90;;;;;;4977457;28;20509;-68
2022/11/08 12:51:28;;;;;;;4.03;2.77;;;19.40;99.90;;;;;;4972391;28;20459;-68
2022/11/08 12:54:15;;;;;;;6.20;2.70;;;19.50;96.60;;;;;;4977130;28;20482;-69
2022/11/08 12:56:46;;;;;;;3.50;2.77;;;19.40;96.80;;;;;;4977327;28;20447;-69
2022/11/08 12:59:19;;;;;;;3.67;2.60;;;19.30;96.50;;;;;;4977188;28;20450;-69
2022/11/08 13:01:46;;;;;;;5.03;2.80;;;19.30;96.50;;;;;;4976807;28;20458;-69
2022/11/08 13:04:40;;;;;;;3.53;2.60;;;19.20;96.50;;;;;;4976531;28;20886;-69
2022/11/08 13:07:15;;;;;;;3.43;2.53;;;19.00;96.00;;;;;;4974521;28;20459;-69
2022/11/08 13:09:47;;;;;;;3.20;2.20;;;19.00;96.20;;;;;;4976932;28;20496;-68
2022/11/08 13:12:27;;;;;;;3.33;2.20;;;19.00;96.50;;;;;;4976889;28;20462;-68
2022/11/08 13:14:54;;;;;;;5.67;2.90;;;18.90;96.30;;;;;;4976657;28;20463;-69
2022/11/08 13:17:24;;;;;;;3.50;3.07;;;18.90;96.90;;;;;;4976378;28;20935;-69
2022/11/08 13:20:04;;;;;;;3.10;2.60;;;18.80;97.30;;;;;;4976303;28;21021;-68
2022/11/08 13:22:42;;;;;;;5.00;3.10;;;18.80;97.50;;;;;;4975395;28;20478;-68
2022/11/08 13:25:50;;;;;;;5.50;2.70;;;18.80;97.80;;;;;;4976665;28;20439;-68
2022/11/08 13:28:52;;;;;;;2.87;2.60;;;18.80;98.20;;;;;;4976588;28;20816;-68